createdAt,value
2022-09-29T00:02:02.260Z,5.30
2022-09-29T00:04:30.331Z,5.53
2022-09-29T00:06:58.343Z,4.95
2022-09-29T00:09:26.434Z,5.10
2022-09-29T00:11:55.787Z,5.13
2022-09-29T00:14:24.634Z,5.25
2022-09-29T00:16:54.179Z,5.32
2022-09-29T00:19:22.216Z,5.43
2022-09-29T00:21:50.309Z,5.88
2022-09-29T00:24:18.349Z,5.18
2022-09-29T00:26:47.581Z,5.15
2022-09-29T00:29:15.568Z,4.90
2022-09-29T00:31:43.726Z,5.00
2022-09-29T00:34:15.754Z,5.20
2022-09-29T00:36:43.856Z,4.50
2022-09-29T00:39:12.468Z,4.53
2022-09-29T00:41:42.230Z,5.18
2022-09-29T00:44:43.615Z,4.38
2022-09-29T00:47:17.331Z,4.80
2022-09-29T00:49:51.051Z,4.35
2022-09-29T00:52:24.269Z,4.70
2022-09-29T00:54:55.864Z,4.65
2022-09-29T00:57:29.052Z,4.20
2022-09-29T01:00:01.811Z,4.50
2022-09-29T01:02:34.896Z,4.55
2022-09-29T01:05:07.986Z,4.43
2022-09-29T01:07:36.189Z,4.38
2022-09-29T01:10:08.958Z,4.07
2022-09-29T01:12:37.236Z,4.57
2022-09-29T01:15:05.664Z,4.72
2022-09-29T01:17:33.790Z,4.00
2022-09-29T01:20:13.022Z,4.88
2022-09-29T01:23:31.864Z,4.68
2022-09-29T01:26:29.151Z,4.30
2022-09-29T01:29:29.527Z,4.60
2022-09-29T01:32:08.068Z,4.20
2022-09-29T01:34:44.425Z,4.40
2022-09-29T01:37:21.648Z,4.30
2022-09-29T01:39:55.726Z,4.35
2022-09-29T01:42:29.898Z,5.07
2022-09-29T01:45:05.182Z,4.65
2022-09-29T01:47:41.675Z,4.55
2022-09-29T01:50:14.784Z,4.45
2022-09-29T01:52:47.591Z,5.05
2022-09-29T01:55:20.139Z,4.82
2022-09-29T01:57:52.138Z,4.47
2022-09-29T02:00:23.076Z,4.25
2022-09-29T02:02:57.639Z,4.82
2022-09-29T02:05:30.119Z,5.20
2022-09-29T02:08:03.412Z,5.03
2022-09-29T02:10:36.629Z,4.70
2022-09-29T02:13:10.224Z,4.93
2022-09-29T02:15:41.547Z,4.82
2022-09-29T02:18:15.047Z,5.50
2022-09-29T02:20:43.239Z,5.13
2022-09-29T02:23:11.841Z,5.53
2022-09-29T02:25:41.331Z,5.10
2022-09-29T02:28:12.444Z,4.97
2022-09-29T02:30:40.863Z,5.07
2022-09-29T02:33:20.244Z,5.30
2022-09-29T02:35:57.566Z,5.60
2022-09-29T02:38:36.447Z,4.88
2022-09-29T02:41:13.635Z,4.90
2022-09-29T02:44:06.089Z,5.32
2022-09-29T02:46:47.017Z,5.30
2022-09-29T02:49:36.057Z,5.00
2022-09-29T02:52:12.532Z,5.10
2022-09-29T02:54:50.829Z,4.78
2022-09-29T02:57:25.325Z,4.90
2022-09-29T03:00:05.949Z,4.93
2022-09-29T03:02:33.915Z,4.80
2022-09-29T03:05:03.819Z,4.97
2022-09-29T03:07:32.016Z,4.90
2022-09-29T03:09:59.970Z,5.60
2022-09-29T03:12:28.324Z,5.43
2022-09-29T03:14:56.329Z,5.63
2022-09-29T03:17:24.361Z,5.82
2022-09-29T03:19:52.348Z,6.00
2022-09-29T03:22:21.727Z,5.38
2022-09-29T03:24:49.676Z,5.25
2022-09-29T03:27:18.471Z,5.72
2022-09-29T03:29:46.505Z,5.85
2022-09-29T03:32:14.831Z,5.47
2022-09-29T03:34:44.916Z,5.10
2022-09-29T03:37:12.938Z,6.05
2022-09-29T03:39:42.235Z,6.07
2022-09-29T03:42:10.374Z,6.05
2022-09-29T03:44:38.384Z,6.10
2022-09-29T03:47:06.403Z,6.63
2022-09-29T03:49:34.535Z,6.70
2022-09-29T03:52:03.037Z,6.28
2022-09-29T03:54:31.042Z,6.90
2022-09-29T03:57:00.387Z,6.18
2022-09-29T03:59:30.527Z,6.70
2022-09-29T04:01:58.781Z,6.70
2022-09-29T04:04:26.909Z,6.97
2022-09-29T04:06:54.966Z,7.63
2022-09-29T04:09:22.942Z,7.13
2022-09-29T04:11:50.891Z,7.25
2022-09-29T04:14:20.229Z,6.47
2022-09-29T04:16:48.204Z,7.63
2022-09-29T04:19:16.378Z,7.05
2022-09-29T04:21:44.393Z,7.45
2022-09-29T04:24:12.601Z,7.30
2022-09-29T04:26:40.917Z,7.35
2022-09-29T04:29:09.403Z,7.15
2022-09-29T04:31:39.062Z,7.20
2022-09-29T04:34:07.356Z,7.68
2022-09-29T04:36:35.459Z,7.68
2022-09-29T04:39:04.633Z,9.02
2022-09-29T04:41:36.855Z,7.18
2022-09-29T04:44:06.071Z,7.10
2022-09-29T04:46:34.144Z,6.10
2022-09-29T04:49:05.878Z,6.97
2022-09-29T04:51:33.899Z,6.60
2022-09-29T04:54:02.003Z,6.85
2022-09-29T04:56:31.651Z,6.60
2022-09-29T04:59:00.141Z,6.35
2022-09-29T05:01:29.145Z,6.28
2022-09-29T05:03:57.591Z,6.93
2022-09-29T05:06:27.015Z,6.60
2022-09-29T05:08:55.255Z,7.07
2022-09-29T05:11:23.281Z,6.30
2022-09-29T05:13:51.742Z,6.07
2022-09-29T05:16:19.894Z,6.72
2022-09-29T05:18:48.057Z,6.88
2022-09-29T05:21:27.704Z,7.00
2022-09-29T05:23:58.642Z,5.88
2022-09-29T05:26:26.886Z,6.90
2022-09-29T05:28:55.240Z,7.20
2022-09-29T05:31:23.781Z,8.90
2022-09-29T05:33:51.938Z,9.82
2022-09-29T05:36:20.039Z,9.10
2022-09-29T05:38:48.689Z,7.95
2022-09-29T05:41:18.845Z,7.55
2022-09-29T05:43:46.920Z,9.13
2022-09-29T05:46:15.984Z,8.45
2022-09-29T05:48:44.693Z,8.80
2022-09-29T05:51:15.397Z,9.07
2022-09-29T05:53:44.910Z,9.95
2022-09-29T05:56:15.221Z,7.78
2022-09-29T05:58:46.977Z,7.72
2022-09-29T06:01:18.274Z,7.75
2022-09-29T06:03:47.375Z,8.10
2022-09-29T06:06:17.314Z,7.57
2022-09-29T06:08:46.020Z,6.30
2022-09-29T06:11:16.638Z,6.57
2022-09-29T06:13:49.080Z,6.30
2022-09-29T06:16:20.011Z,6.60
2022-09-29T06:18:49.153Z,6.32
2022-09-29T06:21:19.366Z,6.13
2022-09-29T06:23:47.569Z,5.75
2022-09-29T06:26:22.787Z,5.85
2022-09-29T06:28:53.616Z,6.20
2022-09-29T06:31:24.302Z,6.13
2022-09-29T06:33:53.076Z,6.03
2022-09-29T06:36:41.972Z,6.60
2022-09-29T06:39:13.985Z,6.68
2022-09-29T06:41:44.469Z,7.78
2022-09-29T06:44:14.264Z,6.32
2022-09-29T06:46:42.675Z,5.90
2022-09-29T06:49:15.418Z,6.13
2022-09-29T06:51:47.494Z,6.03
2022-09-29T06:54:16.865Z,5.65
2022-09-29T06:56:49.183Z,5.28
2022-09-29T06:59:20.398Z,5.18
2022-09-29T07:01:50.610Z,5.15
2022-09-29T07:04:21.282Z,4.55
2022-09-29T07:06:50.479Z,6.30
2022-09-29T07:09:19.544Z,7.63
2022-09-29T07:11:52.428Z,5.75
2022-09-29T07:14:24.068Z,5.18
2022-09-29T07:16:53.214Z,5.93
2022-09-29T07:19:22.343Z,6.50
2022-09-29T07:21:51.625Z,8.10
2022-09-29T07:24:19.706Z,7.43
2022-09-29T07:26:47.839Z,6.55
2022-09-29T07:29:16.303Z,7.88
2022-09-29T07:31:52.326Z,11.85
2022-09-29T07:34:20.856Z,5.72
2022-09-29T07:36:49.202Z,5.22
2022-09-29T07:39:17.656Z,5.35
2022-09-29T07:41:45.936Z,5.45
2022-09-29T07:44:14.142Z,5.85
2022-09-29T07:46:42.310Z,5.78
2022-09-29T07:49:11.727Z,6.28
2022-09-29T07:51:40.006Z,5.85
2022-09-29T07:54:08.099Z,6.30
2022-09-29T07:56:38.915Z,5.55
2022-09-29T07:59:06.924Z,6.03
2022-09-29T08:01:35.301Z,5.97
2022-09-29T08:04:04.272Z,5.03
2022-09-29T08:06:33.622Z,5.07
2022-09-29T08:09:04.981Z,5.30
2022-09-29T08:11:34.934Z,5.43
2022-09-29T08:14:03.178Z,5.32
2022-09-29T08:16:31.836Z,7.22
2022-09-29T08:19:03.223Z,5.70
2022-09-29T08:21:37.522Z,5.47
2022-09-29T08:24:06.757Z,6.50
2022-09-29T08:26:43.318Z,5.85
2022-09-29T08:29:16.456Z,5.25
2022-09-29T08:31:46.055Z,6.57
2022-09-29T08:34:17.640Z,6.22
2022-09-29T08:36:47.354Z,5.15
2022-09-29T08:39:16.068Z,4.75
2022-09-29T08:41:52.127Z,5.35
2022-09-29T08:44:38.989Z,4.85
2022-09-29T08:49:48.895Z,4.45
2022-09-29T08:52:24.273Z,4.35
2022-09-29T08:54:58.569Z,5.50
2022-09-29T08:57:28.053Z,4.90
2022-09-29T08:59:59.846Z,4.68
2022-09-29T09:02:57.111Z,4.10
2022-09-29T09:05:57.693Z,4.22
2022-09-29T09:08:44.010Z,4.82
2022-09-29T09:11:27.133Z,4.57
2022-09-29T09:14:08.064Z,5.05
2022-09-29T09:16:49.740Z,5.50
2022-09-29T09:19:46.506Z,5.85
2022-09-29T09:22:22.641Z,5.65
2022-09-29T09:24:58.151Z,7.00
2022-09-29T09:27:31.815Z,5.57
2022-09-29T09:30:06.338Z,5.93
2022-09-29T09:32:41.605Z,5.47
2022-09-29T09:35:29.643Z,5.00
2022-09-29T09:38:03.699Z,5.50
2022-09-29T09:40:44.703Z,4.70
2022-09-29T09:43:20.335Z,4.40
2022-09-29T09:45:52.316Z,4.50
2022-09-29T09:48:31.361Z,6.63
2022-09-29T09:51:03.032Z,4.60
2022-09-29T09:53:36.182Z,4.32
2022-09-29T09:56:13.285Z,6.93
2022-09-29T09:59:14.227Z,5.05
2022-09-29T10:01:42.465Z,6.65
2022-09-29T10:04:13.643Z,3.95
2022-09-29T10:06:42.407Z,4.70
2022-09-29T10:09:15.538Z,6.65
2022-09-29T10:11:44.958Z,4.80
2022-09-29T10:14:16.727Z,5.28
2022-09-29T10:16:49.488Z,4.80
2022-09-29T10:19:23.376Z,5.13
2022-09-29T10:21:53.813Z,4.10
2022-09-29T10:24:28.532Z,6.00
2022-09-29T10:27:00.565Z,4.63
2022-09-29T10:29:37.821Z,4.40
2022-09-29T10:32:09.468Z,4.40
2022-09-29T10:34:41.232Z,4.00
2022-09-29T10:37:22.613Z,3.65
2022-09-29T10:39:51.216Z,3.90
2022-09-29T10:42:25.203Z,3.67
2022-09-29T10:44:55.561Z,3.30
2022-09-29T10:47:24.761Z,3.20
2022-09-29T10:50:16.907Z,3.65
2022-09-29T10:52:52.747Z,3.33
2022-09-29T10:55:23.844Z,3.42
2022-09-29T10:57:55.168Z,3.00
2022-09-29T11:00:28.617Z,4.07
2022-09-29T11:03:07.381Z,3.60
2022-09-29T11:05:36.721Z,3.13
2022-09-29T11:08:05.820Z,3.70
2022-09-29T11:10:35.990Z,3.50
2022-09-29T11:13:35.917Z,3.63
2022-09-29T11:16:15.431Z,3.25
2022-09-29T11:18:45.894Z,3.83
2022-09-29T11:21:45.877Z,4.47
2022-09-29T11:24:21.494Z,2.70
2022-09-29T11:26:55.326Z,1.85
2022-09-29T11:29:36.960Z,2.20
2022-09-29T11:32:18.461Z,1.80
2022-09-29T11:35:07.317Z,2.05
2022-09-29T11:37:53.577Z,1.50
2022-09-29T11:40:30.952Z,2.03
2022-09-29T11:43:25.629Z,2.10
2022-09-29T11:46:04.184Z,1.90
2022-09-29T11:48:55.314Z,1.40
2022-09-29T11:51:34.452Z,1.60
2022-09-29T11:54:29.562Z,1.50
2022-09-29T11:57:03.206Z,2.50
2022-09-29T11:59:43.734Z,1.98
2022-09-29T12:03:05.825Z,2.08
2022-09-29T12:05:46.668Z,1.83
2022-09-29T12:08:23.915Z,2.42
2022-09-29T12:10:59.239Z,1.85
2022-09-29T12:13:41.222Z,2.00
2022-09-29T12:16:12.908Z,2.53
2022-09-29T12:18:48.297Z,2.17
2022-09-29T12:23:58.876Z,2.80
2022-09-29T12:26:28.610Z,3.67
2022-09-29T12:29:02.592Z,3.90
2022-09-29T12:31:34.996Z,3.35
2022-09-29T12:34:14.747Z,2.75
2022-09-29T12:36:50.786Z,3.03
2022-09-29T12:39:34.241Z,2.30
2022-09-29T12:42:24.106Z,2.20
2022-09-29T12:45:02.362Z,2.40
2022-09-29T12:48:09.141Z,2.63
2022-09-29T12:50:45.663Z,3.15
2022-09-29T12:53:20.617Z,3.08
2022-09-29T12:55:55.077Z,2.97
2022-09-29T12:58:29.985Z,2.65
2022-09-29T13:01:06.988Z,2.63
2022-09-29T13:04:15.272Z,2.90
2022-09-29T13:07:32.057Z,3.13
2022-09-29T13:10:27.918Z,2.17
2022-09-29T13:13:30.768Z,1.83
2022-09-29T13:16:14.798Z,1.98
2022-09-29T13:19:20.372Z,2.05
2022-09-29T13:21:58.057Z,1.92
2022-09-29T13:24:52.400Z,1.40
2022-09-29T13:27:30.258Z,1.80
2022-09-29T13:32:32.437Z,1.65
2022-09-29T13:35:02.374Z,1.85
2022-09-29T13:37:35.805Z,1.50
2022-09-29T13:40:11.495Z,2.08
2022-09-29T13:42:43.691Z,1.83
2022-09-29T13:45:34.426Z,1.67
2022-09-29T13:48:04.333Z,1.60
2022-09-29T13:50:43.835Z,1.40
2022-09-29T13:53:36.332Z,2.45
2022-09-29T13:56:17.599Z,1.98
2022-09-29T13:59:00.951Z,2.40
2022-09-29T14:01:34.609Z,3.90
2022-09-29T14:04:37.999Z,3.22
2022-09-29T14:07:09.052Z,2.40
2022-09-29T14:09:39.749Z,3.38
2022-09-29T14:12:17.525Z,3.80
2022-09-29T14:17:21.726Z,4.30
2022-09-29T14:19:59.018Z,8.75
2022-09-29T14:22:57.142Z,3.63
2022-09-29T14:25:53.427Z,3.25
2022-09-29T14:28:31.542Z,3.50
2022-09-29T14:31:04.183Z,3.20
2022-09-29T14:33:38.237Z,3.13
2022-09-29T14:36:11.374Z,4.03
2022-09-29T14:38:44.318Z,4.18
2022-09-29T14:41:32.030Z,3.25
2022-09-29T14:44:08.734Z,3.92
2022-09-29T14:47:42.760Z,3.53
2022-09-29T14:51:06.718Z,3.90
2022-09-29T14:54:08.156Z,3.15
2022-09-29T14:56:51.893Z,4.13
2022-09-29T14:59:32.755Z,4.38
2022-09-29T15:02:21.632Z,4.57
2022-09-29T15:04:50.578Z,6.07
2022-09-29T15:07:21.752Z,3.65
2022-09-29T15:09:52.595Z,3.72
2022-09-29T15:12:27.289Z,4.28
2022-09-29T15:14:58.697Z,4.25
2022-09-29T15:17:38.109Z,5.10
2022-09-29T15:20:14.525Z,4.53
2022-09-29T15:23:17.238Z,4.55
2022-09-29T15:25:50.382Z,10.13
2022-09-29T15:28:25.440Z,5.20
2022-09-29T15:30:56.903Z,4.32
2022-09-29T15:33:27.623Z,4.88
2022-09-29T15:35:59.916Z,3.80
2022-09-29T15:38:32.620Z,3.10
2022-09-29T15:41:17.766Z,2.92
2022-09-29T15:43:54.827Z,3.67
2022-09-29T15:46:26.934Z,3.50
2022-09-29T15:49:15.543Z,2.80
2022-09-29T15:51:45.327Z,3.58
2022-09-29T15:54:15.592Z,6.10
2022-09-29T15:57:01.376Z,4.60
2022-09-29T15:59:44.353Z,4.18
2022-09-29T16:02:23.715Z,3.90
2022-09-29T16:04:56.026Z,4.88
2022-09-29T16:07:29.176Z,3.42
2022-09-29T16:10:04.399Z,3.97
2022-09-29T16:12:36.549Z,3.00
2022-09-29T16:15:05.199Z,3.13
2022-09-29T16:17:34.738Z,3.00
2022-09-29T16:20:03.838Z,3.33
2022-09-29T16:22:32.999Z,3.30
2022-09-29T16:25:12.342Z,3.17
2022-09-29T16:27:54.813Z,2.85
2022-09-29T16:30:26.379Z,2.95
2022-09-29T16:33:17.301Z,3.40
2022-09-29T16:35:56.543Z,3.30
2022-09-29T16:38:36.610Z,3.55
2022-09-29T16:41:27.578Z,3.35
2022-09-29T16:44:12.866Z,3.92
2022-09-29T16:46:50.605Z,5.05
2022-09-29T16:49:22.917Z,4.03
2022-09-29T16:51:51.858Z,4.05
2022-09-29T16:54:24.691Z,4.07
2022-09-29T16:57:26.477Z,3.58
2022-09-29T16:59:56.674Z,3.75
2022-09-29T17:02:26.023Z,3.65
2022-09-29T17:04:57.143Z,3.00
2022-09-29T17:07:27.640Z,3.20
2022-09-29T17:09:59.130Z,3.53
2022-09-29T17:12:29.458Z,3.20
2022-09-29T17:14:58.090Z,3.30
2022-09-29T17:17:28.097Z,3.30
2022-09-29T17:19:58.120Z,3.50
2022-09-29T17:22:31.333Z,4.22
2022-09-29T17:25:02.288Z,3.63
2022-09-29T17:27:48.546Z,3.42
2022-09-29T17:30:20.931Z,4.32
2022-09-29T17:32:50.794Z,4.32
2022-09-29T17:35:22.316Z,3.90
2022-09-29T17:37:50.939Z,3.97
2022-09-29T17:40:23.489Z,4.40
2022-09-29T17:42:51.775Z,3.97
2022-09-29T17:45:21.943Z,4.78
2022-09-29T17:47:50.393Z,5.18
2022-09-29T17:50:30.213Z,5.63
2022-09-29T17:52:59.507Z,7.05
2022-09-29T17:55:28.366Z,6.47
2022-09-29T17:57:57.636Z,6.85
2022-09-29T18:00:27.966Z,7.47
2022-09-29T18:02:57.470Z,7.70
2022-09-29T18:05:28.676Z,7.18
2022-09-29T18:07:58.078Z,7.53
2022-09-29T18:10:31.256Z,9.68
2022-09-29T18:12:59.809Z,8.27
2022-09-29T18:15:28.335Z,8.55
2022-09-29T18:17:57.884Z,7.00
2022-09-29T18:20:30.924Z,6.72
2022-09-29T18:23:00.534Z,6.70
2022-09-29T18:25:30.158Z,6.53
2022-09-29T18:27:58.353Z,6.85
2022-09-29T18:33:52.370Z,8.13
2022-09-29T18:36:22.534Z,6.75
2022-09-29T18:38:50.927Z,6.60
2022-09-29T18:41:23.143Z,7.72
2022-09-29T18:43:51.772Z,8.95
2022-09-29T18:46:21.494Z,7.25
2022-09-29T18:48:49.751Z,6.82
2022-09-29T18:51:21.341Z,7.60
2022-09-29T18:53:52.092Z,6.95
2022-09-29T18:56:20.310Z,6.88
2022-09-29T18:58:48.470Z,5.47
2022-09-29T19:01:23.445Z,5.97
2022-09-29T19:03:51.612Z,5.60
2022-09-29T19:06:19.920Z,6.05
2022-09-29T19:08:52.231Z,5.88
2022-09-29T19:11:23.358Z,6.97
2022-09-29T19:13:54.096Z,7.70
2022-09-29T19:16:23.631Z,6.78
2022-09-29T19:18:54.088Z,6.88
2022-09-29T19:21:22.250Z,6.47
2022-09-29T19:23:50.341Z,7.20
2022-09-29T19:26:22.332Z,6.43
2022-09-29T19:28:50.684Z,6.82
2022-09-29T19:31:21.690Z,6.88
2022-09-29T19:33:50.604Z,7.03
2022-09-29T19:36:22.819Z,7.00
2022-09-29T19:38:53.334Z,6.78
2022-09-29T19:41:24.547Z,7.68
2022-09-29T19:43:53.353Z,7.55
2022-09-29T19:46:22.617Z,12.32
2022-09-29T19:48:51.012Z,9.75
2022-09-29T19:51:37.038Z,10.15
2022-09-29T19:54:17.187Z,9.70
2022-09-29T19:56:50.046Z,12.20
2022-09-29T19:59:22.623Z,9.10
2022-09-29T20:01:54.215Z,8.18
2022-09-29T20:04:29.324Z,9.27
2022-09-29T20:06:58.391Z,8.68
2022-09-29T20:09:27.557Z,8.88
2022-09-29T20:11:59.662Z,9.40
2022-09-29T20:14:28.769Z,8.45
2022-09-29T20:16:58.673Z,8.85
2022-09-29T20:19:28.005Z,9.40
2022-09-29T20:21:57.276Z,9.13
2022-09-29T20:24:27.642Z,9.15
2022-09-29T20:26:57.957Z,9.38
2022-09-29T20:29:29.346Z,8.90
2022-09-29T20:31:57.984Z,7.93
2022-09-29T20:34:26.209Z,9.13
2022-09-29T20:36:55.175Z,8.18
2022-09-29T20:39:25.220Z,8.57
2022-09-29T20:41:54.630Z,8.15
2022-09-29T20:44:26.080Z,8.65
2022-09-29T20:46:56.897Z,8.18
2022-09-29T20:49:28.662Z,8.52
2022-09-29T20:51:58.114Z,8.52
2022-09-29T20:54:26.516Z,9.80
2022-09-29T20:56:54.885Z,10.13
2022-09-29T20:59:24.433Z,9.48
2022-09-29T21:01:54.243Z,9.85
2022-09-29T21:04:24.032Z,10.63
2022-09-29T21:06:53.036Z,10.48
2022-09-29T21:09:23.366Z,10.88
2022-09-29T21:11:52.775Z,9.93
2022-09-29T21:14:23.485Z,9.82
2022-09-29T21:16:53.207Z,11.05
2022-09-29T21:19:26.560Z,10.70
2022-09-29T21:21:55.021Z,10.82
2022-09-29T21:24:23.244Z,10.43
2022-09-29T21:26:53.907Z,10.18
2022-09-29T21:29:22.197Z,9.52
2022-09-29T21:31:51.500Z,9.75
2022-09-29T21:34:20.001Z,9.73
2022-09-29T21:36:49.376Z,9.48
2022-09-29T21:39:17.524Z,9.18
2022-09-29T21:41:46.248Z,9.60
2022-09-29T21:44:19.040Z,8.95
2022-09-29T21:46:47.839Z,9.38
2022-09-29T21:49:18.008Z,9.88
2022-09-29T21:51:47.374Z,9.48
2022-09-29T21:54:18.456Z,9.00
2022-09-29T21:56:47.828Z,9.23
2022-09-29T21:59:17.757Z,9.80
2022-09-29T22:01:47.001Z,9.35
2022-09-29T22:04:15.783Z,8.88
2022-09-29T22:06:45.004Z,11.10
2022-09-29T22:09:18.780Z,8.82
2022-09-29T22:11:50.033Z,10.05
2022-09-29T22:14:19.157Z,11.77
2022-09-29T22:16:47.270Z,9.75
2022-09-29T22:19:25.283Z,9.85
2022-09-29T22:21:55.759Z,9.57
2022-09-29T22:24:26.704Z,9.88
2022-09-29T22:26:55.110Z,8.90
2022-09-29T22:29:23.340Z,9.13
2022-09-29T22:31:51.673Z,9.13
2022-09-29T22:34:19.722Z,8.85
2022-09-29T22:36:47.790Z,9.10
2022-09-29T22:39:15.752Z,9.68
2022-09-29T22:41:45.177Z,8.82
2022-09-29T22:44:13.490Z,9.10
2022-09-29T22:46:41.596Z,9.40
2022-09-29T22:49:09.830Z,8.98
2022-09-29T22:51:39.927Z,8.85
2022-09-29T22:54:10.024Z,9.57
2022-09-29T22:56:39.876Z,9.27
2022-09-29T22:59:09.513Z,9.10
2022-09-29T23:01:37.812Z,8.85
2022-09-29T23:04:05.918Z,9.02
2022-09-29T23:06:34.216Z,8.70
2022-09-29T23:09:02.372Z,8.40
2022-09-29T23:11:35.706Z,7.38
2022-09-29T23:14:09.962Z,8.65
2022-09-29T23:16:47.080Z,8.00
2022-09-29T23:19:24.000Z,8.25
2022-09-29T23:21:53.476Z,7.45
2022-09-29T23:24:24.271Z,8.02
2022-09-29T23:26:52.583Z,7.75
2022-09-29T23:29:20.780Z,7.28
2022-09-29T23:31:50.710Z,8.25
2022-09-29T23:34:23.492Z,7.90
2022-09-29T23:36:52.118Z,7.72
2022-09-29T23:39:22.397Z,8.10
2022-09-29T23:41:52.496Z,8.10
2022-09-29T23:44:22.271Z,7.05
2022-09-29T23:46:53.355Z,7.45
2022-09-29T23:49:25.345Z,6.57
2022-09-29T23:51:55.737Z,6.15
2022-09-29T23:54:25.157Z,6.63
2022-09-29T23:56:55.353Z,6.65
2022-09-29T23:59:23.842Z,6.55
